Impacts TAF Board INFO
FOR SITUATIONAL AWARENESS. NOT TO BE USED FOR FLIGHT PLANNING PURPOSES.
IDs:

KSAN - San Diego Intl Arpt, CA, US

Issued at 2325 UTC 24 May 2018
Updated at 0118 UTC 25 May 2018
Potential Impact None Slight Moderate High
Time<<26/02Z 26/03Z 26/04Z 26/05Z 26/06Z 26/07Z 26/08Z 26/09Z 26/10Z 26/11Z 26/12Z 26/13Z 26/14Z
Type PRVL PRVL PRVL PRVL
VIS >6 >6 >6 >6
CIG -- 15 15 15
Cover SCT OVC OVC OVC
FltCat VFR MVFR MVFR MVFR
WX -- -- -- --
WDir 290 VRB VRB VRB
WSpd 12 4 4 4
WGst -- -- -- --

Raw TAF
KSAN 242325Z 2500/2606 29009KT P6SM OVC025
  FM250300 VRB04KT P6SM OVC025
  FM250600 VRB04KT P6SM OVC015
  FM251900 29012KT P6SM SCT025
  FM260300 VRB04KT P6SM OVC015


METAR Board
Radar Display
Forecast Discussion

FOR SITUATIONAL AWARENESS. NOT TO BE USED FOR FLIGHT PLANNING PURPOSES.